Lloc web orientat als practicants d'activitats
Centenari de l'SMC: 100 anys mirant el cel

Dades de l'estació automàtica Golmés

?
?

Resum diari

22:00 TU
Dades diàries de l'estació meteorològica
Temperatura mitjana 11.1 °C
Temperatura màxima 19.4 °C 15:05 TU
Temperatura mínima 2.1 °C 4:15 TU
Humitat relativa mitjana 67%
Precipitació acumulada 0.0 mm
Ratxa màxima del vent (2 m) 23.0 km/h - 144º 16:59 TU
Irradiació solar global 23.2 MJ/m2

El tram horari està expressat en Temps Universal (TU). Cal sumar una hora en horari d'hivern i dues en horari d'estiu per passar a l'hora oficial.

Golmés

Metadades estació meteorològica
Municipi Golmés
Comarca Pla d'Urgell
Altitud 261 m
Data alta 08.08.2000
Estat actual Operativa
Dades de període
Període
TU
TM
°C
TX
°C
TN
°C
HRM
%
PPT
mm
VVM (2 m)
km/h
DVM (2 m)
graus
VVX (2 m)
km/h
RS
W/m2
00:00 - 00:30 6.2 6.4 5.7 70 0.0 3.2 161 5.8 0
00:30 - 01:00 5.8 6.4 4.8 73 0.0 1.4 93 4.0 0
01:00 - 01:30 4.7 4.9 4.4 84 0.0 1.4 74 3.6 0
01:30 - 02:00 4.7 5.0 4.6 84 0.0 1.1 121 2.9 0
02:00 - 02:30 5.3 5.9 4.7 78 0.0 1.1 125 4.7 0
02:30 - 03:00 4.5 5.0 4.3 87 0.0 0.7 58 2.5 0
03:00 - 03:30 4.3 5.5 4.0 91 0.0 1.4 119 4.3 0
03:30 - 04:00 4.4 5.7 3.2 85 0.0 1.1 97 4.0 0
04:00 - 04:30 2.7 3.2 2.1 94 0.0 3.6 196 8.3 0
04:30 - 05:00 3.2 3.3 3.1 93 0.0 3.6 175 6.8 0
05:00 - 05:30 2.9 3.1 2.8 91 0.0 2.9 159 6.8 2
05:30 - 06:00 3.4 3.8 3.0 85 0.0 4.3 161 6.1 50
06:00 - 06:30 5.0 6.0 3.7 78 0.0 1.1 138 5.0 138
06:30 - 07:00 5.9 6.8 5.5 77 0.0 2.2 58 4.0 222
07:00 - 07:30 7.7 8.3 6.9 70 0.0 1.8 19 4.7 337
07:30 - 08:00 9.1 9.7 8.4 65 0.0 1.8 3 6.8 441
08:00 - 08:30 9.7 10.8 9.1 63 0.0 2.9 49 6.5 541
08:30 - 09:00 10.8 11.2 10.3 61 0.0 3.6 58 7.2 637
09:00 - 09:30 11.5 12.2 10.9 57 0.0 3.6 348 8.6 681
09:30 - 10:00 12.4 13.4 11.9 54 0.0 3.6 234 10.1 781
10:00 - 10:30 13.8 14.5 13.2 49 0.0 3.6 352 9.0 839
10:30 - 11:00 14.8 15.4 14.2 45 0.0 5.0 277 14.4 881
11:00 - 11:30 15.1 15.6 14.6 45 0.0 6.5 299 14.0 904
11:30 - 12:00 15.7 16.4 15.4 43 0.0 6.1 281 14.4 914
12:00 - 12:30 16.4 17.3 15.9 42 0.0 6.1 259 15.8 922
12:30 - 13:00 17.0 17.6 16.5 40 0.0 5.8 259 16.6 865
13:00 - 13:30 17.4 17.8 16.9 39 0.0 7.2 288 14.0 757
13:30 - 14:00 17.8 18.3 17.3 38 0.0 5.0 248 11.2 763
14:00 - 14:30 18.4 18.9 17.9 36 0.0 4.7 183 12.2 588
14:30 - 15:00 18.5 19.0 18.1 36 0.0 3.2 246 11.5 553
15:00 - 15:30 18.4 19.4 17.2 42 0.0 5.4 172 15.1 456
15:30 - 16:00 16.6 17.2 16.2 55 0.0 10.1 137 18.7 190
16:00 - 16:30 16.4 16.7 16.2 56 0.0 9.7 131 17.3 172
16:30 - 17:00 16.2 16.7 15.6 58 0.0 10.8 131 23.0 156
17:00 - 17:30 15.1 15.5 14.7 64 0.0 13.3 135 22.0 78
17:30 - 18:00 14.4 14.7 14.2 69 0.0 10.8 142 20.2 34
18:00 - 18:30 14.0 14.2 13.7 71 0.0 9.7 143 18.0 14
18:30 - 19:00 13.4 13.7 13.3 74 0.0 5.4 151 13.0 0
19:00 - 19:30 13.0 13.2 12.9 77 0.0 4.3 157 9.7 0
19:30 - 20:00 12.8 12.9 12.7 78 0.0 6.8 144 15.5 0
20:00 - 20:30 12.5 12.7 12.4 79 0.0 4.3 163 10.4 0
20:30 - 21:00 12.2 12.4 12.1 80 0.0 2.9 146 6.5 0
21:00 - 21:30 11.8 12.2 11.4 82 0.0 1.8 78 5.4 0
21:30 - 22:00 11.3 11.4 11.2 85 0.0 2.9 33 6.8 0
22:00 - 22:30 11.3 11.4 11.2 87 0.0 2.9 56 6.1 0
22:30 - 23:00 11.3 11.5 11.2 85 0.0 2.5 86 6.1 0

Les dades en taronja només han passat un control de qualitat automàtic. Resta pendent la seva validació definitiva.